createdAt,value
2018-09-25T00:01:26.083Z,45.67
2018-09-25T00:03:52.082Z,45.36
2018-09-25T00:06:18.100Z,45.11
2018-09-25T00:08:44.086Z,45.21
2018-09-25T00:11:10.069Z,45.19
2018-09-25T00:13:36.047Z,45.03
2018-09-25T00:16:02.035Z,45.17
2018-09-25T00:18:28.038Z,45.18
2018-09-25T00:20:54.023Z,45.17
2018-09-25T00:23:20.013Z,44.85
2018-09-25T00:25:45.999Z,44.88
2018-09-25T00:28:11.974Z,44.91
2018-09-25T00:30:37.985Z,44.99
2018-09-25T00:33:03.976Z,45.09
2018-09-25T00:35:29.983Z,44.81
2018-09-25T00:37:56.008Z,44.61
2018-09-25T00:40:22.048Z,44.30
2018-09-25T00:42:48.053Z,44.38
2018-09-25T00:45:14.052Z,44.24
2018-09-25T00:47:40.040Z,44.33
2018-09-25T00:50:06.027Z,44.17
2018-09-25T00:52:32.034Z,44.15
2018-09-25T00:54:58.047Z,43.86
2018-09-25T00:57:24.035Z,44.13
2018-09-25T00:59:50.049Z,44.09
2018-09-25T01:02:16.031Z,44.08
2018-09-25T01:04:42.011Z,44.05
2018-09-25T01:07:07.992Z,44.02
2018-09-25T01:09:33.988Z,43.80
2018-09-25T01:11:59.968Z,43.78
2018-09-25T01:14:25.950Z,43.59
2018-09-25T01:16:51.941Z,43.85
2018-09-25T01:19:17.943Z,44.01
2018-09-25T01:21:43.940Z,44.30
2018-09-25T01:24:09.941Z,44.41
2018-09-25T01:26:35.953Z,44.27
2018-09-25T01:29:01.930Z,44.25
2018-09-25T01:31:27.947Z,44.00
2018-09-25T01:33:53.953Z,44.15
2018-09-25T01:36:19.969Z,44.40
2018-09-25T01:38:45.959Z,44.20
2018-09-25T01:41:11.973Z,44.09
2018-09-25T01:43:37.967Z,44.02
2018-09-25T01:46:03.961Z,44.23
2018-09-25T01:48:29.947Z,44.06
2018-09-25T01:50:55.936Z,43.75
2018-09-25T01:53:21.941Z,43.57
2018-09-25T01:55:47.958Z,43.36
2018-09-25T01:58:13.971Z,43.18
2018-09-25T02:00:39.987Z,43.33
2018-09-25T02:03:06.004Z,43.08
2018-09-25T02:05:32.017Z,43.09
2018-09-25T02:07:58.003Z,43.09
2018-09-25T02:10:24.009Z,43.07
2018-09-25T02:12:50.034Z,43.01
2018-09-25T02:15:16.039Z,42.97
2018-09-25T02:17:42.040Z,43.12
2018-09-25T02:20:08.049Z,42.77
2018-09-25T02:22:34.038Z,42.83
2018-09-25T02:25:00.041Z,42.86
2018-09-25T02:27:26.051Z,42.71
2018-09-25T02:29:52.027Z,42.69
2018-09-25T02:32:18.042Z,42.91
2018-09-25T02:34:44.044Z,42.86
2018-09-25T02:37:10.031Z,42.94
2018-09-25T02:39:36.027Z,42.87
2018-09-25T02:42:02.050Z,43.01
2018-09-25T02:44:28.038Z,43.01
2018-09-25T02:46:54.044Z,43.32
2018-09-25T02:49:20.027Z,43.15
2018-09-25T02:51:46.045Z,43.05
2018-09-25T02:54:12.046Z,43.03
2018-09-25T02:56:38.065Z,42.95
2018-09-25T02:59:04.075Z,42.98
2018-09-25T03:01:30.095Z,42.88
2018-09-25T03:03:56.083Z,42.77
2018-09-25T03:06:22.135Z,42.54
2018-09-25T03:08:48.114Z,42.59
2018-09-25T03:11:14.105Z,42.31
2018-09-25T03:13:40.092Z,42.22
2018-09-25T03:16:06.104Z,42.50
2018-09-25T03:18:32.082Z,42.15
2018-09-25T03:20:58.096Z,42.05
2018-09-25T03:23:24.078Z,42.31
2018-09-25T03:25:50.064Z,41.97
2018-09-25T03:28:16.082Z,42.05
2018-09-25T03:30:42.069Z,41.87
2018-09-25T03:33:08.051Z,41.91
2018-09-25T03:35:34.032Z,41.68
2018-09-25T03:38:00.044Z,41.83
2018-09-25T03:40:26.038Z,41.88
2018-09-25T03:42:52.155Z,41.85
2018-09-25T03:45:18.164Z,41.62
2018-09-25T03:47:44.166Z,41.89
2018-09-25T03:50:10.175Z,42.06
2018-09-25T03:52:36.192Z,42.05
2018-09-25T03:55:02.197Z,42.12
2018-09-25T03:57:28.225Z,42.22
2018-09-25T03:59:54.310Z,42.60
2018-09-25T04:02:20.316Z,42.64
2018-09-25T04:04:46.329Z,42.38
2018-09-25T04:07:12.316Z,42.61
2018-09-25T04:09:38.333Z,42.57
2018-09-25T04:12:04.337Z,42.30
2018-09-25T04:14:30.328Z,42.33
2018-09-25T04:16:56.339Z,42.26
2018-09-25T04:19:22.359Z,42.51
2018-09-25T04:21:48.366Z,42.70
2018-09-25T04:24:14.433Z,42.89
2018-09-25T04:26:40.399Z,43.04
2018-09-25T04:29:06.396Z,42.68
2018-09-25T04:31:32.402Z,43.10
2018-09-25T04:33:58.415Z,42.84
2018-09-25T04:36:24.408Z,42.98
2018-09-25T04:38:50.395Z,43.19
2018-09-25T04:41:16.433Z,43.56
2018-09-25T04:43:42.424Z,43.48
2018-09-25T04:46:08.412Z,43.27
2018-09-25T04:48:34.718Z,43.95
2018-09-25T04:51:00.850Z,44.60
2018-09-25T04:53:26.831Z,44.51
2018-09-25T04:55:52.808Z,44.69
2018-09-25T04:58:18.847Z,44.93
2018-09-25T05:00:44.823Z,45.07
2018-09-25T05:03:10.848Z,44.40
2018-09-25T05:05:36.910Z,44.59
2018-09-25T05:08:02.974Z,44.53
2018-09-25T05:10:28.970Z,44.85
2018-09-25T05:12:55.020Z,45.05
2018-09-25T05:15:21.099Z,45.04
2018-09-25T05:17:47.120Z,45.08
2018-09-25T05:20:13.175Z,44.75
2018-09-25T05:22:39.219Z,44.88
2018-09-25T05:25:05.268Z,44.38
2018-09-25T05:27:31.274Z,44.08
2018-09-25T05:29:57.262Z,43.67
2018-09-25T05:32:23.248Z,43.52
2018-09-25T05:34:49.282Z,43.52
2018-09-25T05:37:15.299Z,43.13
2018-09-25T05:39:41.329Z,42.83
2018-09-25T05:42:07.346Z,42.62
2018-09-25T05:44:33.393Z,42.87
2018-09-25T05:46:59.374Z,42.73
2018-09-25T05:49:25.388Z,43.38
2018-09-25T05:51:51.381Z,44.00
2018-09-25T05:54:17.437Z,44.11
2018-09-25T05:56:43.447Z,44.24
2018-09-25T05:59:09.438Z,44.46
2018-09-25T06:01:35.429Z,44.48
2018-09-25T06:04:01.418Z,44.45
2018-09-25T06:06:27.404Z,44.39
2018-09-25T06:08:53.418Z,44.46
2018-09-25T06:11:19.404Z,44.39
2018-09-25T06:13:45.414Z,44.07
2018-09-25T06:16:11.429Z,44.04
2018-09-25T06:18:37.500Z,43.75
2018-09-25T06:21:03.507Z,43.75
2018-09-25T06:23:29.518Z,41.82
2018-09-25T06:25:55.560Z,41.08
2018-09-25T06:28:21.544Z,41.03
2018-09-25T06:30:47.529Z,40.79
2018-09-25T06:33:13.713Z,40.86
2018-09-25T06:35:39.784Z,40.90
2018-09-25T06:38:05.768Z,40.75
2018-09-25T06:40:31.778Z,40.61
2018-09-25T06:42:57.796Z,40.43
2018-09-25T06:45:23.873Z,40.10
2018-09-25T06:47:49.897Z,40.11
2018-09-25T06:50:15.883Z,40.09
2018-09-25T06:52:41.892Z,39.87
2018-09-25T06:55:07.971Z,40.38
2018-09-25T06:57:33.912Z,41.43
2018-09-25T06:59:59.927Z,41.52
2018-09-25T07:02:25.924Z,41.54
2018-09-25T07:04:51.933Z,41.85
2018-09-25T07:07:17.933Z,41.98
2018-09-25T07:09:44.095Z,42.13
2018-09-25T07:12:09.998Z,42.13
2018-09-25T07:14:35.984Z,42.28
2018-09-25T07:17:01.996Z,42.15
2018-09-25T07:19:28.004Z,42.24
2018-09-25T07:21:53.997Z,42.53
2018-09-25T07:24:19.982Z,42.65
2018-09-25T07:26:46.006Z,42.51
2018-09-25T07:29:12.019Z,42.86
2018-09-25T07:31:38.015Z,42.53
2018-09-25T07:34:04.061Z,42.21
2018-09-25T07:36:30.055Z,43.16
2018-09-25T07:38:56.080Z,43.08
2018-09-25T07:41:22.089Z,43.03
2018-09-25T07:43:48.072Z,43.31
2018-09-25T07:46:14.086Z,43.49
2018-09-25T07:48:40.076Z,43.54
2018-09-25T07:51:06.085Z,43.68
2018-09-25T07:53:32.083Z,41.98
2018-09-25T07:55:58.059Z,40.43
2018-09-25T07:58:24.066Z,42.27
2018-09-25T08:00:50.103Z,42.61
2018-09-25T08:03:16.093Z,43.03
2018-09-25T08:05:42.049Z,43.09
2018-09-25T08:08:08.050Z,43.30
2018-09-25T08:10:34.041Z,43.30
2018-09-25T08:13:00.025Z,42.71
2018-09-25T08:15:26.073Z,42.91
2018-09-25T08:17:52.036Z,43.07
2018-09-25T08:20:18.084Z,41.64
2018-09-25T08:22:44.028Z,42.11
2018-09-25T08:25:10.083Z,42.39
2018-09-25T08:27:36.069Z,42.44
2018-09-25T08:30:02.062Z,42.72
2018-09-25T08:32:28.074Z,42.94
2018-09-25T08:34:54.148Z,43.35
2018-09-25T08:37:20.103Z,43.15
2018-09-25T08:39:46.103Z,43.34
2018-09-25T08:42:12.092Z,43.40
2018-09-25T08:44:38.158Z,43.50
2018-09-25T08:47:04.180Z,43.61
2018-09-25T08:49:30.189Z,43.61
2018-09-25T08:51:56.190Z,43.68
2018-09-25T08:54:22.203Z,43.30
2018-09-25T08:56:48.218Z,43.37
2018-09-25T08:59:14.199Z,43.53
2018-09-25T09:01:40.211Z,42.71
2018-09-25T09:04:06.224Z,43.43
2018-09-25T09:06:32.270Z,43.20
2018-09-25T09:08:58.224Z,43.13
2018-09-25T09:11:24.214Z,42.97
2018-09-25T09:13:50.214Z,42.75
2018-09-25T09:16:16.230Z,42.59
2018-09-25T09:18:42.216Z,42.57
2018-09-25T09:21:08.329Z,42.42
2018-09-25T09:23:34.318Z,42.24
2018-09-25T09:26:00.330Z,42.12
2018-09-25T09:28:26.336Z,42.28
2018-09-25T09:30:52.324Z,42.05
2018-09-25T09:33:18.333Z,42.00
2018-09-25T09:35:44.361Z,42.30
2018-09-25T09:38:10.384Z,41.93
2018-09-25T09:40:36.420Z,42.05
2018-09-25T09:43:02.376Z,41.60
2018-09-25T09:45:28.373Z,41.86
2018-09-25T09:47:54.400Z,41.90
2018-09-25T09:50:20.360Z,42.17
2018-09-25T09:52:46.341Z,42.24
2018-09-25T09:55:12.314Z,42.32
2018-09-25T09:57:38.309Z,42.10
2018-09-25T10:00:04.295Z,42.31
2018-09-25T10:02:30.308Z,42.21
2018-09-25T10:04:56.318Z,42.33
2018-09-25T10:07:22.325Z,42.22
2018-09-25T10:09:48.334Z,42.34
2018-09-25T10:12:14.347Z,42.13
2018-09-25T10:14:40.361Z,42.28
2018-09-25T10:17:06.373Z,42.24
2018-09-25T10:19:32.424Z,42.16
2018-09-25T10:21:58.430Z,42.14
2018-09-25T10:24:24.445Z,42.11
2018-09-25T10:26:50.446Z,42.21
2018-09-25T10:29:16.449Z,42.23
2018-09-25T10:31:42.440Z,42.05
2018-09-25T10:34:08.569Z,41.96
2018-09-25T10:36:34.484Z,42.23
2018-09-25T10:39:00.496Z,42.14
2018-09-25T10:41:26.477Z,42.11
2018-09-25T10:43:52.508Z,41.77
2018-09-25T10:46:18.501Z,41.78
2018-09-25T10:48:44.506Z,42.00
2018-09-25T10:51:10.608Z,42.03
2018-09-25T10:53:36.603Z,42.04
2018-09-25T10:56:02.748Z,41.94
2018-09-25T10:58:28.667Z,41.68
2018-09-25T11:00:54.665Z,41.79
2018-09-25T11:03:20.743Z,41.76
2018-09-25T11:05:46.664Z,41.70
2018-09-25T11:08:12.674Z,41.09
2018-09-25T11:10:38.661Z,41.15
2018-09-25T11:13:04.650Z,41.01
2018-09-25T11:15:30.656Z,40.88
2018-09-25T11:17:56.640Z,41.01
2018-09-25T11:20:22.623Z,40.94
2018-09-25T11:22:48.604Z,40.88
2018-09-25T11:25:14.645Z,40.85
2018-09-25T11:27:40.655Z,41.04
2018-09-25T11:30:06.645Z,40.63
2018-09-25T11:32:32.657Z,40.68
2018-09-25T11:34:58.650Z,40.97
2018-09-25T11:37:24.665Z,40.66
2018-09-25T11:39:50.650Z,40.70
2018-09-25T11:42:16.671Z,41.14
2018-09-25T11:44:42.677Z,40.79
2018-09-25T11:47:08.705Z,40.75
2018-09-25T11:49:34.659Z,40.74
2018-09-25T11:52:00.731Z,40.73
2018-09-25T11:54:26.732Z,41.71
2018-09-25T11:56:52.741Z,40.77
2018-09-25T11:59:18.731Z,40.70
2018-09-25T12:01:44.721Z,40.67
2018-09-25T12:04:10.778Z,40.54
2018-09-25T12:06:36.758Z,40.68
2018-09-25T12:09:02.740Z,40.75
2018-09-25T12:11:28.763Z,40.40
2018-09-25T12:13:54.860Z,40.71
2018-09-25T12:16:20.767Z,40.52
2018-09-25T12:18:46.752Z,40.74
2018-09-25T12:21:12.735Z,40.95
2018-09-25T12:23:38.743Z,40.74
2018-09-25T12:26:04.744Z,41.18
2018-09-25T12:28:30.746Z,40.70
2018-09-25T12:30:56.749Z,40.61
2018-09-25T12:33:22.790Z,40.20
2018-09-25T12:35:48.766Z,40.17
2018-09-25T12:38:14.808Z,39.54
2018-09-25T12:40:40.850Z,39.78
2018-09-25T12:43:06.810Z,40.10
2018-09-25T12:45:32.811Z,39.35
2018-09-25T12:47:58.817Z,39.29
2018-09-25T12:50:24.818Z,39.16
2018-09-25T12:52:50.826Z,38.90
2018-09-25T12:55:16.843Z,38.08
2018-09-25T12:57:42.845Z,38.27
2018-09-25T13:00:08.858Z,38.60
2018-09-25T13:02:34.978Z,38.35
2018-09-25T13:05:01.003Z,37.80
2018-09-25T13:07:27.009Z,36.80
2018-09-25T13:09:53.007Z,37.27
2018-09-25T13:12:19.032Z,38.33
2018-09-25T13:14:45.022Z,38.14
2018-09-25T13:17:11.030Z,38.47
2018-09-25T13:19:37.042Z,39.04
2018-09-25T13:22:03.035Z,38.51
2018-09-25T13:24:29.049Z,39.00
2018-09-25T13:26:55.084Z,39.33
2018-09-25T13:29:21.135Z,39.46
2018-09-25T13:31:47.174Z,38.79
2018-09-25T13:34:13.155Z,39.19
2018-09-25T13:36:39.165Z,39.66
2018-09-25T13:39:05.177Z,39.68
2018-09-25T13:41:31.224Z,39.68
2018-09-25T13:43:57.273Z,39.69
2018-09-25T13:46:23.260Z,39.79
2018-09-25T13:48:49.259Z,40.21
2018-09-25T13:51:15.266Z,40.17
2018-09-25T13:53:41.276Z,39.97
2018-09-25T13:56:07.311Z,40.15
2018-09-25T13:58:33.304Z,40.31
2018-09-25T14:00:59.306Z,37.20
2018-09-25T14:03:25.364Z,38.48
2018-09-25T14:05:51.316Z,37.40
2018-09-25T14:08:17.313Z,37.52
2018-09-25T14:10:43.321Z,36.67
2018-09-25T14:13:09.326Z,37.18
2018-09-25T14:15:35.316Z,37.37
2018-09-25T14:18:01.330Z,37.54
2018-09-25T14:20:27.344Z,37.70
2018-09-25T14:22:53.353Z,37.47
2018-09-25T14:25:19.420Z,38.12
2018-09-25T14:27:45.434Z,37.80
2018-09-25T14:30:11.465Z,37.31
2018-09-25T14:32:37.544Z,38.09
2018-09-25T14:35:03.548Z,37.66
2018-09-25T14:37:29.546Z,37.18
2018-09-25T14:39:55.542Z,37.63
2018-09-25T14:42:21.550Z,37.75
2018-09-25T14:44:47.568Z,37.47
2018-09-25T14:47:13.576Z,37.55
2018-09-25T14:49:39.590Z,37.32
2018-09-25T14:52:05.599Z,37.28
2018-09-25T14:54:31.636Z,37.18
2018-09-25T14:56:57.622Z,37.73
2018-09-25T14:59:23.642Z,37.06
2018-09-25T15:01:49.670Z,37.52
2018-09-25T15:04:15.704Z,37.00
2018-09-25T15:06:41.714Z,37.11
2018-09-25T15:09:07.717Z,37.50
2018-09-25T15:11:33.720Z,36.93
2018-09-25T15:13:59.729Z,36.84
2018-09-25T15:16:25.744Z,36.55
2018-09-25T15:18:51.746Z,36.82
2018-09-25T15:21:17.812Z,36.75
2018-09-25T15:23:43.769Z,36.78
2018-09-25T15:26:09.786Z,37.46
2018-09-25T15:28:35.781Z,37.22
2018-09-25T15:31:01.796Z,36.03
2018-09-25T15:33:27.959Z,36.29
2018-09-25T15:35:54.041Z,36.55
2018-09-25T15:38:20.033Z,36.73
2018-09-25T15:40:46.153Z,36.94
2018-09-25T15:43:12.175Z,36.01
2018-09-25T15:45:38.151Z,35.93
2018-09-25T15:48:04.248Z,36.74
2018-09-25T15:50:30.226Z,37.01
2018-09-25T15:52:56.272Z,37.27
2018-09-25T15:55:22.323Z,37.66
2018-09-25T15:57:48.331Z,38.01
2018-09-25T16:00:14.390Z,37.95
2018-09-25T16:02:40.363Z,37.19
2018-09-25T16:05:06.394Z,36.78
2018-09-25T16:07:32.519Z,36.82
2018-09-25T16:09:58.505Z,35.56
2018-09-25T16:12:24.737Z,36.83
2018-09-25T16:14:50.740Z,36.19
2018-09-25T16:17:16.740Z,36.44
2018-09-25T16:19:42.773Z,36.39
2018-09-25T16:22:08.774Z,36.27
2018-09-25T16:24:34.789Z,35.67
2018-09-25T16:27:00.829Z,36.19
2018-09-25T16:29:26.841Z,37.34
2018-09-25T16:31:52.847Z,36.36
2018-09-25T16:34:18.857Z,36.00
2018-09-25T16:36:44.868Z,36.36
2018-09-25T16:39:10.880Z,36.20
2018-09-25T16:41:36.948Z,36.79
2018-09-25T16:44:03.018Z,36.82
2018-09-25T16:46:29.018Z,37.19
2018-09-25T16:48:55.021Z,36.16
2018-09-25T16:51:21.039Z,37.65
2018-09-25T16:53:53.148Z,37.13
2018-09-25T16:56:19.821Z,37.81
2018-09-25T16:58:46.666Z,37.61
2018-09-25T17:01:12.666Z,37.40
2018-09-25T17:03:38.683Z,37.97
2018-09-25T17:06:04.765Z,37.47
2018-09-25T17:08:30.738Z,37.54
2018-09-25T17:10:56.794Z,38.04
2018-09-25T17:13:22.836Z,37.90
2018-09-25T17:15:48.843Z,38.01
2018-09-25T17:18:14.838Z,38.02
2018-09-25T17:20:40.843Z,37.67
2018-09-25T17:23:06.884Z,37.78
2018-09-25T17:25:35.905Z,37.85
2018-09-25T17:28:02.648Z,37.73
2018-09-25T17:30:29.394Z,38.02
2018-09-25T17:32:56.439Z,38.71
2018-09-25T17:35:23.283Z,38.46
2018-09-25T17:37:49.354Z,39.26
2018-09-25T17:40:15.392Z,38.93
2018-09-25T17:42:41.448Z,39.19
2018-09-25T17:45:07.531Z,39.06
2018-09-25T17:47:33.534Z,39.28
2018-09-25T17:49:59.692Z,39.31
2018-09-25T17:52:29.416Z,39.19
2018-09-25T17:55:01.637Z,39.96
2018-09-25T17:57:27.662Z,39.63
2018-09-25T17:59:53.666Z,39.21
2018-09-25T18:02:19.684Z,38.79
2018-09-25T18:04:45.726Z,38.91
2018-09-25T18:07:11.782Z,38.58
2018-09-25T18:09:37.848Z,38.79
2018-09-25T18:12:03.860Z,38.86
2018-09-25T18:14:29.870Z,39.19
2018-09-25T18:16:55.886Z,39.13
2018-09-25T18:19:21.930Z,39.74
2018-09-25T18:21:47.921Z,39.00
2018-09-25T18:24:13.945Z,39.17
2018-09-25T18:26:39.961Z,39.78
2018-09-25T18:29:06.007Z,39.76
2018-09-25T18:31:32.002Z,40.23
2018-09-25T18:33:58.488Z,39.89
2018-09-25T18:36:24.487Z,39.91
2018-09-25T18:38:50.489Z,40.13
2018-09-25T18:41:16.571Z,39.87
2018-09-25T18:43:42.673Z,39.70
2018-09-25T18:46:08.639Z,39.83
2018-09-25T18:48:34.669Z,39.73
2018-09-25T18:51:01.885Z,39.50
2018-09-25T18:53:28.064Z,39.38
2018-09-25T18:55:54.045Z,40.19
2018-09-25T18:58:20.034Z,39.68
2018-09-25T19:00:46.065Z,39.46
2018-09-25T19:03:12.069Z,39.33
2018-09-25T19:05:38.352Z,39.27
2018-09-25T19:08:04.374Z,39.46
2018-09-25T19:10:30.386Z,39.55
2018-09-25T19:12:56.400Z,39.68
2018-09-25T19:15:22.429Z,40.07
2018-09-25T19:17:48.416Z,40.06
2018-09-25T19:20:14.405Z,40.21
2018-09-25T19:22:40.421Z,40.56
2018-09-25T19:25:06.405Z,40.57
2018-09-25T19:27:32.422Z,40.55
2018-09-25T19:29:58.451Z,40.57
2018-09-25T19:32:24.437Z,40.60
2018-09-25T19:34:50.482Z,40.86
2018-09-25T19:37:16.490Z,41.05
2018-09-25T19:39:42.502Z,41.13
2018-09-25T19:42:08.499Z,40.87
2018-09-25T19:44:34.535Z,41.09
2018-09-25T19:47:00.561Z,41.10
2018-09-25T19:49:26.542Z,41.05
2018-09-25T19:51:52.600Z,41.30
2018-09-25T19:54:18.602Z,41.69
2018-09-25T19:56:44.596Z,41.38
2018-09-25T19:59:10.602Z,41.04
2018-09-25T20:01:36.845Z,41.01
2018-09-25T20:04:02.835Z,41.05
2018-09-25T20:06:29.342Z,40.86
2018-09-25T20:08:55.335Z,40.80
2018-09-25T20:11:21.529Z,40.20
2018-09-25T20:13:47.535Z,40.37
2018-09-25T20:16:13.545Z,40.31
2018-09-25T20:18:39.535Z,40.32
2018-09-25T20:21:05.695Z,40.11
2018-09-25T20:23:31.863Z,40.11
2018-09-25T20:25:57.893Z,40.01
2018-09-25T20:28:23.876Z,39.90
2018-09-25T20:30:49.890Z,39.93
2018-09-25T20:33:15.924Z,39.77
2018-09-25T20:35:41.917Z,39.99
2018-09-25T20:38:07.925Z,39.87
2018-09-25T20:40:33.936Z,40.30
2018-09-25T20:42:59.932Z,39.92
2018-09-25T20:45:25.942Z,39.85
2018-09-25T20:47:51.985Z,40.18
2018-09-25T20:50:17.990Z,39.69
2018-09-25T20:52:43.997Z,39.67
2018-09-25T20:55:10.017Z,39.66
2018-09-25T20:57:36.036Z,39.78
2018-09-25T21:00:02.040Z,39.46
2018-09-25T21:02:28.042Z,39.52
2018-09-25T21:04:54.127Z,39.57
2018-09-25T21:07:20.141Z,39.65
2018-09-25T21:09:46.150Z,39.46
2018-09-25T21:12:12.196Z,39.86
2018-09-25T21:14:38.149Z,39.60
2018-09-25T21:17:04.159Z,39.50
2018-09-25T21:19:30.207Z,39.06
2018-09-25T21:21:56.217Z,39.40
2018-09-25T21:24:22.222Z,39.28
2018-09-25T21:26:48.252Z,39.04
2018-09-25T21:29:14.233Z,39.23
2018-09-25T21:31:40.246Z,39.31
2018-09-25T21:34:06.243Z,39.25
2018-09-25T21:36:32.254Z,39.06
2018-09-25T21:38:58.294Z,39.33
2018-09-25T21:41:24.250Z,38.99
2018-09-25T21:43:50.256Z,39.09
2018-09-25T21:46:16.265Z,39.16
2018-09-25T21:48:42.261Z,38.83
2018-09-25T21:51:08.366Z,39.00
2018-09-25T21:53:34.275Z,38.79
2018-09-25T21:56:00.264Z,38.94
2018-09-25T21:58:26.247Z,39.11
2018-09-25T22:00:52.237Z,38.90
2018-09-25T22:03:18.243Z,38.75
2018-09-25T22:05:44.238Z,38.97
2018-09-25T22:08:10.223Z,38.83
2018-09-25T22:10:36.233Z,38.90
2018-09-25T22:13:02.218Z,38.86
2018-09-25T22:15:28.203Z,38.55
2018-09-25T22:17:54.222Z,38.86
2018-09-25T22:20:20.208Z,39.13
2018-09-25T22:22:46.215Z,38.94
2018-09-25T22:25:12.225Z,39.10
2018-09-25T22:27:38.245Z,39.04
2018-09-25T22:30:04.252Z,38.89
2018-09-25T22:32:30.234Z,38.66
2018-09-25T22:34:56.220Z,38.90
2018-09-25T22:37:22.230Z,39.02
2018-09-25T22:39:48.244Z,38.50
2018-09-25T22:42:14.254Z,38.61
2018-09-25T22:44:40.238Z,38.73
2018-09-25T22:47:06.252Z,38.71
2018-09-25T22:49:32.262Z,38.96
2018-09-25T22:51:58.247Z,38.38
2018-09-25T22:54:24.224Z,38.93
2018-09-25T22:56:50.269Z,38.77
2018-09-25T22:59:16.273Z,38.86
2018-09-25T23:01:42.283Z,38.97
2018-09-25T23:04:08.282Z,38.83
2018-09-25T23:06:34.268Z,38.48
2018-09-25T23:09:00.279Z,38.55
2018-09-25T23:11:26.263Z,38.78
2018-09-25T23:13:52.275Z,38.58
2018-09-25T23:16:18.264Z,38.65
2018-09-25T23:18:44.254Z,38.58
2018-09-25T23:21:10.267Z,38.81
2018-09-25T23:23:36.285Z,38.46
2018-09-25T23:26:02.300Z,38.65
2018-09-25T23:28:28.358Z,38.48
2018-09-25T23:30:54.361Z,38.37
2018-09-25T23:33:20.408Z,38.51
2018-09-25T23:35:46.408Z,38.64
2018-09-25T23:38:12.397Z,38.88
2018-09-25T23:40:38.478Z,38.48
2018-09-25T23:43:04.490Z,38.64
2018-09-25T23:45:30.491Z,38.64
2018-09-25T23:47:56.484Z,38.50
2018-09-25T23:50:22.500Z,38.83
2018-09-25T23:52:48.481Z,38.75
2018-09-25T23:55:14.498Z,38.55
2018-09-25T23:57:40.512Z,38.47
